sensor_id;sensor_type;location;lat;lon;timestamp;P1;durP1;ratioP1;P2;durP2;ratioP2
12024;SDS011;6073;53.230;10.444;2024-03-02T00:02:04;28.70;;;17.45;;
12024;SDS011;6073;53.230;10.444;2024-03-02T00:04:31;28.67;;;17.45;;
12024;SDS011;6073;53.230;10.444;2024-03-02T00:06:57;29.50;;;16.83;;
12024;SDS011;6073;53.230;10.444;2024-03-02T00:09:22;34.75;;;17.70;;
12024;SDS011;6073;53.230;10.444;2024-03-02T00:11:48;31.50;;;17.27;;
12024;SDS011;6073;53.230;10.444;2024-03-02T00:14:13;30.93;;;16.97;;
12024;SDS011;6073;53.230;10.444;2024-03-02T00:16:40;36.53;;;18.02;;
12024;SDS011;6073;53.230;10.444;2024-03-02T00:19:06;32.05;;;16.55;;
12024;SDS011;6073;53.230;10.444;2024-03-02T00:21:33;31.45;;;17.60;;
12024;SDS011;6073;53.230;10.444;2024-03-02T00:23:59;31.75;;;18.88;;
12024;SDS011;6073;53.230;10.444;2024-03-02T00:26:27;33.42;;;19.35;;
12024;SDS011;6073;53.230;10.444;2024-03-02T00:28:54;32.53;;;16.98;;
12024;SDS011;6073;53.230;10.444;2024-03-02T00:31:21;28.63;;;15.52;;
12024;SDS011;6073;53.230;10.444;2024-03-02T00:33:47;32.38;;;17.02;;
12024;SDS011;6073;53.230;10.444;2024-03-02T00:36:24;32.55;;;16.65;;
12024;SDS011;6073;53.230;10.444;2024-03-02T00:38:51;32.35;;;17.45;;
12024;SDS011;6073;53.230;10.444;2024-03-02T00:43:56;30.83;;;17.35;;
12024;SDS011;6073;53.230;10.444;2024-03-02T00:46:22;35.50;;;18.88;;
12024;SDS011;6073;53.230;10.444;2024-03-02T00:48:51;32.45;;;17.95;;
12024;SDS011;6073;53.230;10.444;2024-03-02T00:51:22;29.65;;;17.52;;
12024;SDS011;6073;53.230;10.444;2024-03-02T00:53:49;32.63;;;17.17;;
12024;SDS011;6073;53.230;10.444;2024-03-02T00:56:15;34.08;;;17.40;;
12024;SDS011;6073;53.230;10.444;2024-03-02T00:58:42;30.25;;;17.33;;
12024;SDS011;6073;53.230;10.444;2024-03-02T01:01:07;33.30;;;18.30;;
12024;SDS011;6073;53.230;10.444;2024-03-02T01:03:33;33.92;;;19.00;;
12024;SDS011;6073;53.230;10.444;2024-03-02T01:05:59;33.58;;;17.92;;
12024;SDS011;6073;53.230;10.444;2024-03-02T01:08:24;30.40;;;16.73;;
12024;SDS011;6073;53.230;10.444;2024-03-02T01:10:51;31.35;;;17.05;;
12024;SDS011;6073;53.230;10.444;2024-03-02T01:13:16;30.67;;;17.95;;
12024;SDS011;6073;53.230;10.444;2024-03-02T01:15:42;32.75;;;18.63;;
12024;SDS011;6073;53.230;10.444;2024-03-02T01:18:07;36.33;;;18.02;;
12024;SDS011;6073;53.230;10.444;2024-03-02T01:20:33;31.83;;;18.65;;
12024;SDS011;6073;53.230;10.444;2024-03-02T01:22:59;30.45;;;16.98;;
12024;SDS011;6073;53.230;10.444;2024-03-02T01:25:24;30.75;;;17.17;;
12024;SDS011;6073;53.230;10.444;2024-03-02T01:27:50;32.83;;;17.38;;
12024;SDS011;6073;53.230;10.444;2024-03-02T01:30:15;32.42;;;17.75;;
12024;SDS011;6073;53.230;10.444;2024-03-02T01:32:41;30.80;;;17.42;;
12024;SDS011;6073;53.230;10.444;2024-03-02T01:35:07;28.85;;;16.98;;
12024;SDS011;6073;53.230;10.444;2024-03-02T01:37:33;34.97;;;18.65;;
12024;SDS011;6073;53.230;10.444;2024-03-02T01:39:58;30.17;;;15.88;;
12024;SDS011;6073;53.230;10.444;2024-03-02T01:42:24;32.90;;;17.95;;
12024;SDS011;6073;53.230;10.444;2024-03-02T01:44:50;32.20;;;17.80;;
12024;SDS011;6073;53.230;10.444;2024-03-02T01:47:16;29.15;;;17.35;;
12024;SDS011;6073;53.230;10.444;2024-03-02T01:49:41;33.25;;;17.90;;
12024;SDS011;6073;53.230;10.444;2024-03-02T01:52:07;34.63;;;18.95;;
12024;SDS011;6073;53.230;10.444;2024-03-02T01:54:32;31.52;;;16.67;;
12024;SDS011;6073;53.230;10.444;2024-03-02T01:56:58;31.75;;;17.92;;
12024;SDS011;6073;53.230;10.444;2024-03-02T01:59:24;32.83;;;17.77;;
12024;SDS011;6073;53.230;10.444;2024-03-02T02:01:50;33.58;;;18.15;;
12024;SDS011;6073;53.230;10.444;2024-03-02T02:04:15;31.30;;;17.58;;
12024;SDS011;6073;53.230;10.444;2024-03-02T02:06:42;32.25;;;17.35;;
12024;SDS011;6073;53.230;10.444;2024-03-02T02:09:09;27.48;;;17.50;;
12024;SDS011;6073;53.230;10.444;2024-03-02T02:11:34;33.67;;;18.08;;
12024;SDS011;6073;53.230;10.444;2024-03-02T02:14:00;30.67;;;17.27;;
12024;SDS011;6073;53.230;10.444;2024-03-02T02:16:25;32.15;;;18.33;;
12024;SDS011;6073;53.230;10.444;2024-03-02T02:18:51;31.50;;;17.40;;
12024;SDS011;6073;53.230;10.444;2024-03-02T02:21:16;33.38;;;17.65;;
12024;SDS011;6073;53.230;10.444;2024-03-02T02:23:42;32.80;;;18.27;;
12024;SDS011;6073;53.230;10.444;2024-03-02T02:26:11;29.10;;;16.52;;
12024;SDS011;6073;53.230;10.444;2024-03-02T02:28:37;28.23;;;15.93;;
12024;SDS011;6073;53.230;10.444;2024-03-02T02:31:02;32.10;;;18.25;;
12024;SDS011;6073;53.230;10.444;2024-03-02T02:33:28;31.75;;;17.10;;
12024;SDS011;6073;53.230;10.444;2024-03-02T02:35:54;29.58;;;16.65;;
12024;SDS011;6073;53.230;10.444;2024-03-02T02:38:19;30.60;;;17.48;;
12024;SDS011;6073;53.230;10.444;2024-03-02T02:40:45;33.63;;;18.42;;
12024;SDS011;6073;53.230;10.444;2024-03-02T02:43:10;31.17;;;16.98;;
12024;SDS011;6073;53.230;10.444;2024-03-02T02:45:37;28.77;;;17.08;;
12024;SDS011;6073;53.230;10.444;2024-03-02T02:48:02;30.50;;;17.48;;
12024;SDS011;6073;53.230;10.444;2024-03-02T02:50:28;29.63;;;16.50;;
12024;SDS011;6073;53.230;10.444;2024-03-02T02:52:53;29.98;;;16.88;;
12024;SDS011;6073;53.230;10.444;2024-03-02T02:55:19;31.17;;;17.90;;
12024;SDS011;6073;53.230;10.444;2024-03-02T02:57:45;30.88;;;17.63;;
12024;SDS011;6073;53.230;10.444;2024-03-02T03:00:12;32.13;;;17.30;;
12024;SDS011;6073;53.230;10.444;2024-03-02T03:02:43;28.88;;;17.33;;
12024;SDS011;6073;53.230;10.444;2024-03-02T03:05:10;29.17;;;17.42;;
12024;SDS011;6073;53.230;10.444;2024-03-02T03:07:36;30.58;;;17.58;;
12024;SDS011;6073;53.230;10.444;2024-03-02T03:10:04;31.25;;;17.35;;
12024;SDS011;6073;53.230;10.444;2024-03-02T03:12:31;30.92;;;16.40;;
12024;SDS011;6073;53.230;10.444;2024-03-02T03:14:57;30.95;;;17.30;;
12024;SDS011;6073;53.230;10.444;2024-03-02T03:17:23;28.55;;;15.80;;
12024;SDS011;6073;53.230;10.444;2024-03-02T03:19:49;31.05;;;17.50;;
12024;SDS011;6073;53.230;10.444;2024-03-02T03:22:14;29.27;;;17.83;;
12024;SDS011;6073;53.230;10.444;2024-03-02T03:24:40;28.35;;;16.70;;
12024;SDS011;6073;53.230;10.444;2024-03-02T03:27:05;35.08;;;18.02;;
12024;SDS011;6073;53.230;10.444;2024-03-02T03:29:31;31.60;;;17.40;;
12024;SDS011;6073;53.230;10.444;2024-03-02T03:31:57;30.42;;;17.48;;
12024;SDS011;6073;53.230;10.444;2024-03-02T03:34:22;26.60;;;17.05;;
12024;SDS011;6073;53.230;10.444;2024-03-02T03:36:48;33.58;;;17.65;;
12024;SDS011;6073;53.230;10.444;2024-03-02T03:39:13;23.95;;;15.35;;
12024;SDS011;6073;53.230;10.444;2024-03-02T03:41:40;29.85;;;16.48;;
12024;SDS011;6073;53.230;10.444;2024-03-02T03:44:06;31.08;;;16.58;;
12024;SDS011;6073;53.230;10.444;2024-03-02T03:46:31;32.83;;;16.55;;
12024;SDS011;6073;53.230;10.444;2024-03-02T03:48:57;26.80;;;15.57;;
12024;SDS011;6073;53.230;10.444;2024-03-02T03:51:22;31.70;;;18.05;;
12024;SDS011;6073;53.230;10.444;2024-03-02T03:53:48;34.20;;;16.70;;
12024;SDS011;6073;53.230;10.444;2024-03-02T03:56:14;27.20;;;15.93;;
12024;SDS011;6073;53.230;10.444;2024-03-02T03:58:39;30.60;;;16.95;;
12024;SDS011;6073;53.230;10.444;2024-03-02T04:01:05;30.38;;;16.60;;
12024;SDS011;6073;53.230;10.444;2024-03-02T04:03:30;29.25;;;16.23;;
12024;SDS011;6073;53.230;10.444;2024-03-02T04:05:56;29.63;;;15.93;;
12024;SDS011;6073;53.230;10.444;2024-03-02T04:08:21;25.50;;;16.63;;
12024;SDS011;6073;53.230;10.444;2024-03-02T04:10:47;28.92;;;16.05;;
12024;SDS011;6073;53.230;10.444;2024-03-02T04:13:13;25.70;;;15.18;;
12024;SDS011;6073;53.230;10.444;2024-03-02T04:15:38;28.98;;;15.65;;
12024;SDS011;6073;53.230;10.444;2024-03-02T04:18:05;28.05;;;15.55;;
12024;SDS011;6073;53.230;10.444;2024-03-02T04:20:31;27.17;;;15.20;;
12024;SDS011;6073;53.230;10.444;2024-03-02T04:22:56;26.65;;;14.75;;
12024;SDS011;6073;53.230;10.444;2024-03-02T04:25:22;30.13;;;15.40;;
12024;SDS011;6073;53.230;10.444;2024-03-02T04:27:48;26.23;;;16.10;;
12024;SDS011;6073;53.230;10.444;2024-03-02T04:30:13;29.25;;;15.48;;
12024;SDS011;6073;53.230;10.444;2024-03-02T04:32:40;27.33;;;16.05;;
12024;SDS011;6073;53.230;10.444;2024-03-02T04:35:05;27.25;;;15.55;;
12024;SDS011;6073;53.230;10.444;2024-03-02T04:37:35;32.45;;;16.10;;
12024;SDS011;6073;53.230;10.444;2024-03-02T04:40:00;25.00;;;15.55;;
12024;SDS011;6073;53.230;10.444;2024-03-02T04:42:26;28.73;;;15.05;;
12024;SDS011;6073;53.230;10.444;2024-03-02T04:44:51;23.98;;;15.02;;
12024;SDS011;6073;53.230;10.444;2024-03-02T04:47:17;24.45;;;14.80;;
12024;SDS011;6073;53.230;10.444;2024-03-02T04:49:42;29.23;;;15.43;;
12024;SDS011;6073;53.230;10.444;2024-03-02T04:52:08;26.02;;;15.25;;
12024;SDS011;6073;53.230;10.444;2024-03-02T04:54:34;27.45;;;15.65;;
12024;SDS011;6073;53.230;10.444;2024-03-02T04:57:19;27.42;;;15.65;;
12024;SDS011;6073;53.230;10.444;2024-03-02T04:59:45;24.02;;;13.82;;
12024;SDS011;6073;53.230;10.444;2024-03-02T05:02:10;28.65;;;14.48;;
12024;SDS011;6073;53.230;10.444;2024-03-02T05:04:38;26.83;;;15.63;;
12024;SDS011;6073;53.230;10.444;2024-03-02T05:07:04;28.58;;;15.18;;
12024;SDS011;6073;53.230;10.444;2024-03-02T05:09:30;26.80;;;15.80;;
12024;SDS011;6073;53.230;10.444;2024-03-02T05:11:55;26.42;;;15.18;;
12024;SDS011;6073;53.230;10.444;2024-03-02T05:14:36;29.45;;;16.05;;
12024;SDS011;6073;53.230;10.444;2024-03-02T05:17:03;29.23;;;15.70;;
12024;SDS011;6073;53.230;10.444;2024-03-02T05:19:29;28.42;;;15.15;;
12024;SDS011;6073;53.230;10.444;2024-03-02T05:21:54;33.17;;;17.33;;
12024;SDS011;6073;53.230;10.444;2024-03-02T05:24:20;27.52;;;16.33;;
12024;SDS011;6073;53.230;10.444;2024-03-02T05:26:45;25.67;;;16.25;;
12024;SDS011;6073;53.230;10.444;2024-03-02T05:29:11;27.38;;;15.93;;
12024;SDS011;6073;53.230;10.444;2024-03-02T05:31:37;26.17;;;14.75;;
12024;SDS011;6073;53.230;10.444;2024-03-02T05:34:02;30.20;;;17.15;;
12024;SDS011;6073;53.230;10.444;2024-03-02T05:36:28;31.02;;;17.42;;
12024;SDS011;6073;53.230;10.444;2024-03-02T05:38:54;34.50;;;19.95;;
12024;SDS011;6073;53.230;10.444;2024-03-02T05:41:19;30.88;;;17.67;;
12024;SDS011;6073;53.230;10.444;2024-03-02T05:43:45;29.85;;;17.20;;
12024;SDS011;6073;53.230;10.444;2024-03-02T05:46:10;30.42;;;17.45;;
12024;SDS011;6073;53.230;10.444;2024-03-02T05:48:36;30.23;;;16.30;;
12024;SDS011;6073;53.230;10.444;2024-03-02T05:51:02;34.20;;;18.17;;
12024;SDS011;6073;53.230;10.444;2024-03-02T05:53:28;31.48;;;17.63;;
12024;SDS011;6073;53.230;10.444;2024-03-02T05:55:53;31.15;;;17.15;;
12024;SDS011;6073;53.230;10.444;2024-03-02T05:58:20;31.60;;;16.52;;
12024;SDS011;6073;53.230;10.444;2024-03-02T06:00:49;28.70;;;17.55;;
12024;SDS011;6073;53.230;10.444;2024-03-02T06:03:14;35.95;;;19.20;;
12024;SDS011;6073;53.230;10.444;2024-03-02T06:05:40;33.72;;;17.30;;
12024;SDS011;6073;53.230;10.444;2024-03-02T06:08:06;33.78;;;18.45;;
12024;SDS011;6073;53.230;10.444;2024-03-02T06:10:32;33.10;;;16.92;;
12024;SDS011;6073;53.230;10.444;2024-03-02T06:12:58;31.48;;;18.10;;
12024;SDS011;6073;53.230;10.444;2024-03-02T06:15:24;34.08;;;17.02;;
12024;SDS011;6073;53.230;10.444;2024-03-02T06:17:49;32.30;;;18.50;;
12024;SDS011;6073;53.230;10.444;2024-03-02T06:20:15;34.03;;;18.38;;
12024;SDS011;6073;53.230;10.444;2024-03-02T06:22:40;34.10;;;18.60;;
12024;SDS011;6073;53.230;10.444;2024-03-02T06:25:06;35.33;;;19.50;;
12024;SDS011;6073;53.230;10.444;2024-03-02T06:27:32;35.42;;;19.38;;
12024;SDS011;6073;53.230;10.444;2024-03-02T06:29:57;36.13;;;18.98;;
12024;SDS011;6073;53.230;10.444;2024-03-02T06:32:23;30.83;;;17.92;;
12024;SDS011;6073;53.230;10.444;2024-03-02T06:34:50;37.47;;;20.20;;
12024;SDS011;6073;53.230;10.444;2024-03-02T06:37:15;31.98;;;17.77;;
12024;SDS011;6073;53.230;10.444;2024-03-02T06:39:41;35.47;;;18.30;;
12024;SDS011;6073;53.230;10.444;2024-03-02T06:42:06;34.80;;;19.48;;
12024;SDS011;6073;53.230;10.444;2024-03-02T06:44:32;31.73;;;18.90;;
12024;SDS011;6073;53.230;10.444;2024-03-02T06:46:57;33.60;;;17.58;;
12024;SDS011;6073;53.230;10.444;2024-03-02T06:49:23;38.53;;;18.40;;
12024;SDS011;6073;53.230;10.444;2024-03-02T06:51:48;31.40;;;17.55;;
12024;SDS011;6073;53.230;10.444;2024-03-02T06:54:14;31.80;;;18.30;;
12024;SDS011;6073;53.230;10.444;2024-03-02T06:56:40;29.90;;;17.95;;
12024;SDS011;6073;53.230;10.444;2024-03-02T06:59:05;31.08;;;18.23;;
12024;SDS011;6073;53.230;10.444;2024-03-02T07:01:32;32.78;;;18.05;;
12024;SDS011;6073;53.230;10.444;2024-03-02T07:03:57;30.30;;;17.55;;
12024;SDS011;6073;53.230;10.444;2024-03-02T07:06:23;31.20;;;17.88;;
12024;SDS011;6073;53.230;10.444;2024-03-02T07:08:48;29.88;;;17.90;;
12024;SDS011;6073;53.230;10.444;2024-03-02T07:11:14;33.35;;;18.73;;
12024;SDS011;6073;53.230;10.444;2024-03-02T07:13:39;33.45;;;18.00;;
12024;SDS011;6073;53.230;10.444;2024-03-02T07:16:05;31.15;;;18.45;;
12024;SDS011;6073;53.230;10.444;2024-03-02T07:18:49;29.27;;;17.92;;
12024;SDS011;6073;53.230;10.444;2024-03-02T07:21:16;34.42;;;18.05;;
12024;SDS011;6073;53.230;10.444;2024-03-02T07:23:42;30.63;;;17.48;;
12024;SDS011;6073;53.230;10.444;2024-03-02T07:26:07;29.92;;;17.35;;
12024;SDS011;6073;53.230;10.444;2024-03-02T07:28:33;33.50;;;17.48;;
12024;SDS011;6073;53.230;10.444;2024-03-02T07:30:59;29.75;;;16.23;;
12024;SDS011;6073;53.230;10.444;2024-03-02T07:33:25;28.80;;;16.73;;
12024;SDS011;6073;53.230;10.444;2024-03-02T07:35:51;31.70;;;16.05;;
12024;SDS011;6073;53.230;10.444;2024-03-02T07:38:17;25.98;;;14.82;;
12024;SDS011;6073;53.230;10.444;2024-03-02T07:40:42;24.58;;;15.63;;
12024;SDS011;6073;53.230;10.444;2024-03-02T07:43:08;26.27;;;15.88;;
12024;SDS011;6073;53.230;10.444;2024-03-02T07:45:34;24.45;;;16.10;;
12024;SDS011;6073;53.230;10.444;2024-03-02T07:48:02;27.35;;;15.43;;
12024;SDS011;6073;53.230;10.444;2024-03-02T07:50:29;26.85;;;15.38;;
12024;SDS011;6073;53.230;10.444;2024-03-02T07:52:55;26.60;;;15.27;;
12024;SDS011;6073;53.230;10.444;2024-03-02T07:55:21;24.17;;;14.80;;
12024;SDS011;6073;53.230;10.444;2024-03-02T07:57:46;25.50;;;15.25;;
12024;SDS011;6073;53.230;10.444;2024-03-02T08:00:12;27.58;;;15.55;;
12024;SDS011;6073;53.230;10.444;2024-03-02T08:02:39;28.85;;;15.77;;
12024;SDS011;6073;53.230;10.444;2024-03-02T08:05:05;24.98;;;15.48;;
12024;SDS011;6073;53.230;10.444;2024-03-02T08:07:31;28.20;;;15.00;;
12024;SDS011;6073;53.230;10.444;2024-03-02T08:09:57;24.92;;;14.98;;
12024;SDS011;6073;53.230;10.444;2024-03-02T08:12:22;29.80;;;15.75;;
12024;SDS011;6073;53.230;10.444;2024-03-02T08:14:48;24.90;;;14.45;;
12024;SDS011;6073;53.230;10.444;2024-03-02T08:17:14;24.45;;;14.38;;
12024;SDS011;6073;53.230;10.444;2024-03-02T08:19:39;22.10;;;13.35;;
12024;SDS011;6073;53.230;10.444;2024-03-02T08:22:05;23.23;;;13.63;;
12024;SDS011;6073;53.230;10.444;2024-03-02T08:24:31;24.17;;;14.10;;
12024;SDS011;6073;53.230;10.444;2024-03-02T08:26:58;20.73;;;14.00;;
12024;SDS011;6073;53.230;10.444;2024-03-02T08:29:24;20.13;;;13.80;;
12024;SDS011;6073;53.230;10.444;2024-03-02T08:31:50;21.30;;;13.23;;
12024;SDS011;6073;53.230;10.444;2024-03-02T08:34:16;23.17;;;13.90;;
12024;SDS011;6073;53.230;10.444;2024-03-02T08:36:41;24.02;;;14.38;;
12024;SDS011;6073;53.230;10.444;2024-03-02T08:39:07;19.35;;;13.13;;
12024;SDS011;6073;53.230;10.444;2024-03-02T08:41:40;19.95;;;12.35;;
12024;SDS011;6073;53.230;10.444;2024-03-02T08:44:09;22.30;;;12.82;;
12024;SDS011;6073;53.230;10.444;2024-03-02T08:46:35;19.52;;;11.88;;
12024;SDS011;6073;53.230;10.444;2024-03-02T08:49:01;20.45;;;13.32;;
12024;SDS011;6073;53.230;10.444;2024-03-02T08:51:26;20.55;;;12.52;;
12024;SDS011;6073;53.230;10.444;2024-03-02T08:53:52;19.30;;;12.07;;
12024;SDS011;6073;53.230;10.444;2024-03-02T08:56:17;19.25;;;12.35;;
12024;SDS011;6073;53.230;10.444;2024-03-02T08:58:45;18.45;;;12.45;;
12024;SDS011;6073;53.230;10.444;2024-03-02T09:01:11;18.45;;;11.80;;
12024;SDS011;6073;53.230;10.444;2024-03-02T09:03:36;18.83;;;11.73;;
12024;SDS011;6073;53.230;10.444;2024-03-02T09:06:02;19.17;;;12.13;;
12024;SDS011;6073;53.230;10.444;2024-03-02T09:08:28;19.38;;;10.73;;
12024;SDS011;6073;53.230;10.444;2024-03-02T09:10:54;17.52;;;12.00;;
12024;SDS011;6073;53.230;10.444;2024-03-02T09:13:21;15.68;;;10.23;;
12024;SDS011;6073;53.230;10.444;2024-03-02T09:15:47;16.58;;;10.68;;
12024;SDS011;6073;53.230;10.444;2024-03-02T09:18:13;18.63;;;10.27;;
12024;SDS011;6073;53.230;10.444;2024-03-02T09:20:38;15.95;;;10.13;;
12024;SDS011;6073;53.230;10.444;2024-03-02T09:23:04;16.23;;;10.68;;
12024;SDS011;6073;53.230;10.444;2024-03-02T09:25:29;14.85;;;9.32;;
12024;SDS011;6073;53.230;10.444;2024-03-02T09:27:55;16.55;;;10.95;;
12024;SDS011;6073;53.230;10.444;2024-03-02T09:30:21;15.93;;;10.20;;
12024;SDS011;6073;53.230;10.444;2024-03-02T09:32:47;13.98;;;9.75;;
12024;SDS011;6073;53.230;10.444;2024-03-02T09:35:12;15.65;;;9.85;;
12024;SDS011;6073;53.230;10.444;2024-03-02T09:37:38;16.20;;;10.55;;
12024;SDS011;6073;53.230;10.444;2024-03-02T09:40:04;15.18;;;9.77;;
12024;SDS011;6073;53.230;10.444;2024-03-02T09:42:31;11.85;;;8.95;;
12024;SDS011;6073;53.230;10.444;2024-03-02T09:44:57;15.43;;;9.68;;
12024;SDS011;6073;53.230;10.444;2024-03-02T09:47:22;14.95;;;9.88;;
12024;SDS011;6073;53.230;10.444;2024-03-02T09:49:49;16.63;;;10.18;;
12024;SDS011;6073;53.230;10.444;2024-03-02T09:52:14;14.00;;;9.50;;
12024;SDS011;6073;53.230;10.444;2024-03-02T09:54:41;17.00;;;10.25;;
12024;SDS011;6073;53.230;10.444;2024-03-02T09:57:07;16.40;;;9.63;;
12024;SDS011;6073;53.230;10.444;2024-03-02T10:02:08;13.98;;;8.40;;
12024;SDS011;6073;53.230;10.444;2024-03-02T10:04:33;13.55;;;8.88;;
12024;SDS011;6073;53.230;10.444;2024-03-02T10:07:16;12.93;;;8.65;;
12024;SDS011;6073;53.230;10.444;2024-03-02T10:09:46;13.30;;;8.50;;
12024;SDS011;6073;53.230;10.444;2024-03-02T10:12:17;12.30;;;8.85;;
12024;SDS011;6073;53.230;10.444;2024-03-02T10:14:43;13.75;;;9.07;;
12024;SDS011;6073;53.230;10.444;2024-03-02T10:17:10;13.13;;;8.95;;
12024;SDS011;6073;53.230;10.444;2024-03-02T10:19:37;15.38;;;9.63;;
12024;SDS011;6073;53.230;10.444;2024-03-02T10:22:07;14.73;;;9.20;;
12024;SDS011;6073;53.230;10.444;2024-03-02T10:24:37;14.65;;;9.10;;
12024;SDS011;6073;53.230;10.444;2024-03-02T10:27:08;12.50;;;9.15;;
12024;SDS011;6073;53.230;10.444;2024-03-02T10:29:47;13.93;;;9.20;;
12024;SDS011;6073;53.230;10.444;2024-03-02T10:32:14;13.75;;;8.93;;
12024;SDS011;6073;53.230;10.444;2024-03-02T10:34:41;15.60;;;9.38;;
12024;SDS011;6073;53.230;10.444;2024-03-02T10:37:08;14.40;;;9.30;;
12024;SDS011;6073;53.230;10.444;2024-03-02T10:39:35;13.90;;;9.55;;
12024;SDS011;6073;53.230;10.444;2024-03-02T10:42:01;14.90;;;9.45;;
12024;SDS011;6073;53.230;10.444;2024-03-02T10:44:28;13.25;;;8.77;;
12024;SDS011;6073;53.230;10.444;2024-03-02T10:46:55;12.88;;;9.30;;
12024;SDS011;6073;53.230;10.444;2024-03-02T10:49:22;12.75;;;8.80;;
12024;SDS011;6073;53.230;10.444;2024-03-02T10:51:48;14.02;;;9.90;;
12024;SDS011;6073;53.230;10.444;2024-03-02T10:54:14;14.13;;;9.38;;
12024;SDS011;6073;53.230;10.444;2024-03-02T10:56:40;13.70;;;8.60;;
12024;SDS011;6073;53.230;10.444;2024-03-02T10:59:28;11.82;;;8.18;;
12024;SDS011;6073;53.230;10.444;2024-03-02T11:01:58;12.80;;;8.88;;
12024;SDS011;6073;53.230;10.444;2024-03-02T11:04:25;13.35;;;8.35;;
12024;SDS011;6073;53.230;10.444;2024-03-02T11:06:54;13.20;;;8.77;;
12024;SDS011;6073;53.230;10.444;2024-03-02T11:09:36;12.38;;;9.13;;
12024;SDS011;6073;53.230;10.444;2024-03-02T11:14:52;15.77;;;10.63;;
12024;SDS011;6073;53.230;10.444;2024-03-02T11:17:20;16.85;;;9.10;;
12024;SDS011;6073;53.230;10.444;2024-03-02T11:19:47;14.57;;;9.38;;
12024;SDS011;6073;53.230;10.444;2024-03-02T11:22:13;13.95;;;9.88;;
12024;SDS011;6073;53.230;10.444;2024-03-02T11:24:40;13.40;;;10.13;;
12024;SDS011;6073;53.230;10.444;2024-03-02T11:27:58;15.05;;;10.20;;
12024;SDS011;6073;53.230;10.444;2024-03-02T11:33:11;13.20;;;8.45;;
12024;SDS011;6073;53.230;10.444;2024-03-02T11:35:37;14.35;;;9.80;;
12024;SDS011;6073;53.230;10.444;2024-03-02T11:38:07;13.65;;;8.55;;
12024;SDS011;6073;53.230;10.444;2024-03-02T11:40:34;15.02;;;9.05;;
12024;SDS011;6073;53.230;10.444;2024-03-02T11:43:00;14.93;;;9.20;;
12024;SDS011;6073;53.230;10.444;2024-03-02T11:45:26;13.27;;;8.40;;
12024;SDS011;6073;53.230;10.444;2024-03-02T11:47:58;12.52;;;8.63;;
12024;SDS011;6073;53.230;10.444;2024-03-02T11:50:33;14.82;;;9.30;;
12024;SDS011;6073;53.230;10.444;2024-03-02T11:53:02;14.23;;;9.25;;
12024;SDS011;6073;53.230;10.444;2024-03-02T11:55:31;12.23;;;8.00;;
12024;SDS011;6073;53.230;10.444;2024-03-02T11:57:59;10.55;;;7.90;;
12024;SDS011;6073;53.230;10.444;2024-03-02T12:00:26;12.07;;;8.23;;
12024;SDS011;6073;53.230;10.444;2024-03-02T12:05:29;12.27;;;8.35;;
12024;SDS011;6073;53.230;10.444;2024-03-02T12:07:59;13.32;;;8.68;;
12024;SDS011;6073;53.230;10.444;2024-03-02T12:10:26;12.50;;;8.80;;
12024;SDS011;6073;53.230;10.444;2024-03-02T12:12:58;12.85;;;8.90;;
12024;SDS011;6073;53.230;10.444;2024-03-02T12:15:25;12.43;;;8.43;;
12024;SDS011;6073;53.230;10.444;2024-03-02T12:17:55;14.05;;;8.40;;
12024;SDS011;6073;53.230;10.444;2024-03-02T12:20:22;12.95;;;8.40;;
12024;SDS011;6073;53.230;10.444;2024-03-02T12:22:50;14.88;;;8.50;;
12024;SDS011;6073;53.230;10.444;2024-03-02T12:25:17;17.33;;;9.05;;
12024;SDS011;6073;53.230;10.444;2024-03-02T12:27:44;13.77;;;8.43;;
12024;SDS011;6073;53.230;10.444;2024-03-02T12:30:10;12.57;;;8.52;;
12024;SDS011;6073;53.230;10.444;2024-03-02T12:32:38;14.07;;;9.00;;
12024;SDS011;6073;53.230;10.444;2024-03-02T12:35:05;12.63;;;8.63;;
12024;SDS011;6073;53.230;10.444;2024-03-02T12:37:31;11.35;;;8.10;;
12024;SDS011;6073;53.230;10.444;2024-03-02T12:39:56;11.75;;;8.35;;
12024;SDS011;6073;53.230;10.444;2024-03-02T12:42:23;15.43;;;8.30;;
12024;SDS011;6073;53.230;10.444;2024-03-02T12:44:51;13.57;;;9.00;;
12024;SDS011;6073;53.230;10.444;2024-03-02T12:47:19;13.25;;;7.88;;
12024;SDS011;6073;53.230;10.444;2024-03-02T12:49:45;10.57;;;7.72;;
12024;SDS011;6073;53.230;10.444;2024-03-02T12:52:12;12.85;;;8.75;;
12024;SDS011;6073;53.230;10.444;2024-03-02T12:54:38;11.90;;;8.60;;
12024;SDS011;6073;53.230;10.444;2024-03-02T12:57:03;11.23;;;7.95;;
12024;SDS011;6073;53.230;10.444;2024-03-02T12:59:29;11.60;;;8.68;;
12024;SDS011;6073;53.230;10.444;2024-03-02T13:01:56;11.35;;;7.55;;
12024;SDS011;6073;53.230;10.444;2024-03-02T13:04:27;14.57;;;9.48;;
12024;SDS011;6073;53.230;10.444;2024-03-02T13:06:54;14.75;;;8.73;;
12024;SDS011;6073;53.230;10.444;2024-03-02T13:09:22;11.25;;;8.38;;
12024;SDS011;6073;53.230;10.444;2024-03-02T13:11:48;11.63;;;7.60;;
12024;SDS011;6073;53.230;10.444;2024-03-02T13:14:14;12.70;;;8.55;;
12024;SDS011;6073;53.230;10.444;2024-03-02T13:16:40;11.85;;;8.10;;
12024;SDS011;6073;53.230;10.444;2024-03-02T13:19:10;12.85;;;8.40;;
12024;SDS011;6073;53.230;10.444;2024-03-02T13:21:37;12.65;;;8.07;;
12024;SDS011;6073;53.230;10.444;2024-03-02T13:24:03;13.65;;;8.18;;
12024;SDS011;6073;53.230;10.444;2024-03-02T13:26:29;11.15;;;7.40;;
12024;SDS011;6073;53.230;10.444;2024-03-02T13:28:55;12.65;;;8.45;;
12024;SDS011;6073;53.230;10.444;2024-03-02T13:31:21;11.05;;;7.20;;
12024;SDS011;6073;53.230;10.444;2024-03-02T13:33:47;11.45;;;8.18;;
12024;SDS011;6073;53.230;10.444;2024-03-02T13:36:12;11.60;;;8.25;;
12024;SDS011;6073;53.230;10.444;2024-03-02T13:38:38;13.95;;;7.55;;
12024;SDS011;6073;53.230;10.444;2024-03-02T13:41:04;12.93;;;7.75;;
12024;SDS011;6073;53.230;10.444;2024-03-02T13:43:30;11.43;;;7.47;;
12024;SDS011;6073;53.230;10.444;2024-03-02T13:46:00;11.65;;;8.50;;
12024;SDS011;6073;53.230;10.444;2024-03-02T13:48:27;10.60;;;7.85;;
12024;SDS011;6073;53.230;10.444;2024-03-02T13:50:53;12.98;;;7.85;;
12024;SDS011;6073;53.230;10.444;2024-03-02T13:53:18;10.77;;;7.18;;
12024;SDS011;6073;53.230;10.444;2024-03-02T13:59:30;11.18;;;7.32;;
12024;SDS011;6073;53.230;10.444;2024-03-02T14:05:15;10.30;;;7.80;;
12024;SDS011;6073;53.230;10.444;2024-03-02T14:07:55;9.57;;;6.78;;
12024;SDS011;6073;53.230;10.444;2024-03-02T14:10:41;10.25;;;7.00;;
12024;SDS011;6073;53.230;10.444;2024-03-02T14:13:20;13.23;;;7.43;;
12024;SDS011;6073;53.230;10.444;2024-03-02T14:15:46;10.25;;;6.65;;
12024;SDS011;6073;53.230;10.444;2024-03-02T14:18:11;11.07;;;6.82;;
12024;SDS011;6073;53.230;10.444;2024-03-02T14:23:56;10.77;;;6.00;;
12024;SDS011;6073;53.230;10.444;2024-03-02T14:26:21;9.55;;;6.88;;
12024;SDS011;6073;53.230;10.444;2024-03-02T14:28:47;11.48;;;7.05;;
12024;SDS011;6073;53.230;10.444;2024-03-02T14:31:12;10.02;;;6.43;;
12024;SDS011;6073;53.230;10.444;2024-03-02T14:33:38;9.90;;;6.72;;
12024;SDS011;6073;53.230;10.444;2024-03-02T14:36:04;10.95;;;6.38;;
12024;SDS011;6073;53.230;10.444;2024-03-02T14:38:30;11.70;;;6.40;;
12024;SDS011;6073;53.230;10.444;2024-03-02T14:40:56;9.93;;;6.57;;
12024;SDS011;6073;53.230;10.444;2024-03-02T14:43:21;9.32;;;5.78;;
12024;SDS011;6073;53.230;10.444;2024-03-02T14:45:47;8.95;;;6.05;;
12024;SDS011;6073;53.230;10.444;2024-03-02T14:48:13;8.30;;;5.68;;